Terminal Aerodrome Forecast
Issued by NWS Tampa Bay Area, FL

Home | Current Version | Previous Version | Text Only | Print | Product List | Glossary On
Versions: 1 2 3 4 5 6 7 8 9 10 11 12 13
252
FTUS42 KTBW 111120
TAFFMY
TAF
KFMY 111120Z 1112/1212 07010KT P6SM SCT025 BKN060
     FM111600 10012G20KT P6SM SCT025 OVC050
     FM112000 11010KT P6SM SCT025 OVC050
     FM120200 10004KT P6SM BKN100
     FM120900 10003KT 5SM BR SCT005 BKN025=

USA.gov is the U.S. government's official web portal to all federal, state and local government web resources and services.